sensor_id;sensor_type;location;lat;lon;timestamp;pressure;altitude;pressure_sealevel;temperature
45701;BMP280;36277;32.852;-116.998;2022-07-22T00:01:29;99824.75;;;25.21
45701;BMP280;36277;32.852;-116.998;2022-07-22T00:03:56;99827.59;;;24.94
45701;BMP280;36277;32.852;-116.998;2022-07-22T00:06:22;99823.81;;;24.54
45701;BMP280;36277;32.852;-116.998;2022-07-22T00:08:49;99820.19;;;24.54
45701;BMP280;36277;32.852;-116.998;2022-07-22T00:11:15;99817.25;;;24.62
45701;BMP280;36277;32.852;-116.998;2022-07-22T00:13:42;99811.88;;;24.47
45701;BMP280;36277;32.852;-116.998;2022-07-22T00:16:08;99816.78;;;24.24
45701;BMP280;36277;32.852;-116.998;2022-07-22T00:18:34;99817.31;;;24.75
45701;BMP280;36277;32.852;-116.998;2022-07-22T00:21:00;99815.81;;;25.19
45701;BMP280;36277;32.852;-116.998;2022-07-22T00:23:27;99812.47;;;25.49
45701;BMP280;36277;32.852;-116.998;2022-07-22T00:25:53;99814.19;;;25.76
45701;BMP280;36277;32.852;-116.998;2022-07-22T00:28:20;99807.34;;;25.33
45701;BMP280;36277;32.852;-116.998;2022-07-22T00:30:49;99800.53;;;25.23
45701;BMP280;36277;32.852;-116.998;2022-07-22T00:33:16;99798.72;;;25.03
45701;BMP280;36277;32.852;-116.998;2022-07-22T00:35:42;99801.25;;;24.91
45701;BMP280;36277;32.852;-116.998;2022-07-22T00:38:08;99800.31;;;24.71
45701;BMP280;36277;32.852;-116.998;2022-07-22T00:40:35;99792.41;;;24.62
45701;BMP280;36277;32.852;-116.998;2022-07-22T00:43:01;99796.34;;;24.46
45701;BMP280;36277;32.852;-116.998;2022-07-22T00:45:27;99794.19;;;24.42
45701;BMP280;36277;32.852;-116.998;2022-07-22T00:47:54;99792.66;;;24.33
45701;BMP280;36277;32.852;-116.998;2022-07-22T00:50:20;99796.78;;;24.90
45701;BMP280;36277;32.852;-116.998;2022-07-22T00:52:49;99796.94;;;25.35
45701;BMP280;36277;32.852;-116.998;2022-07-22T00:55:16;99801.44;;;25.69
45701;BMP280;36277;32.852;-116.998;2022-07-22T00:57:42;99804.66;;;25.79
45701;BMP280;36277;32.852;-116.998;2022-07-22T01:00:13;99798.84;;;25.28
45701;BMP280;36277;32.852;-116.998;2022-07-22T01:02:40;99800.53;;;25.36
45701;BMP280;36277;32.852;-116.998;2022-07-22T01:05:06;99800.03;;;25.07
45701;BMP280;36277;32.852;-116.998;2022-07-22T01:07:33;99806.50;;;24.73
45701;BMP280;36277;32.852;-116.998;2022-07-22T01:09:59;99802.44;;;24.76
45701;BMP280;36277;32.852;-116.998;2022-07-22T01:12:26;99799.03;;;24.74
45701;BMP280;36277;32.852;-116.998;2022-07-22T01:14:52;99801.22;;;24.44
45701;BMP280;36277;32.852;-116.998;2022-07-22T01:17:18;99808.53;;;24.24
45701;BMP280;36277;32.852;-116.998;2022-07-22T01:19:45;99799.81;;;24.55
45701;BMP280;36277;32.852;-116.998;2022-07-22T01:22:11;99803.63;;;24.54
45701;BMP280;36277;32.852;-116.998;2022-07-22T01:24:37;99800.03;;;25.07
45701;BMP280;36277;32.852;-116.998;2022-07-22T01:27:03;99797.16;;;25.40
45701;BMP280;36277;32.852;-116.998;2022-07-22T01:29:30;99799.31;;;25.71
45701;BMP280;36277;32.852;-116.998;2022-07-22T01:31:56;99790.81;;;25.59
45701;BMP280;36277;32.852;-116.998;2022-07-22T01:34:22;99794.13;;;25.16
45701;BMP280;36277;32.852;-116.998;2022-07-22T01:36:49;99792.97;;;24.91
45701;BMP280;36277;32.852;-116.998;2022-07-22T01:39:15;99791.47;;;24.89
45701;BMP280;36277;32.852;-116.998;2022-07-22T01:41:42;99787.19;;;24.80
45701;BMP280;36277;32.852;-116.998;2022-07-22T01:44:09;99787.16;;;24.67
45701;BMP280;36277;32.852;-116.998;2022-07-22T01:46:35;99793.84;;;24.51
45701;BMP280;36277;32.852;-116.998;2022-07-22T01:49:02;99789.50;;;24.36
45701;BMP280;36277;32.852;-116.998;2022-07-22T01:51:28;99785.03;;;24.35
45701;BMP280;36277;32.852;-116.998;2022-07-22T01:53:55;99790.19;;;24.85
45701;BMP280;36277;32.852;-116.998;2022-07-22T01:56:21;99789.72;;;25.28
45701;BMP280;36277;32.852;-116.998;2022-07-22T01:58:47;99790.16;;;25.57
45701;BMP280;36277;32.852;-116.998;2022-07-22T02:01:13;99780.84;;;25.71
45701;BMP280;36277;32.852;-116.998;2022-07-22T02:03:40;99798.44;;;25.38
45701;BMP280;36277;32.852;-116.998;2022-07-22T02:06:06;99793.63;;;25.00
45701;BMP280;36277;32.852;-116.998;2022-07-22T02:08:32;99800.06;;;24.66
45701;BMP280;36277;32.852;-116.998;2022-07-22T02:10:59;99797.53;;;24.65
45701;BMP280;36277;32.852;-116.998;2022-07-22T02:13:25;99803.91;;;24.31
45701;BMP280;36277;32.852;-116.998;2022-07-22T02:15:51;99793.22;;;24.49
45701;BMP280;36277;32.852;-116.998;2022-07-22T02:18:19;99795.13;;;24.96
45701;BMP280;36277;32.852;-116.998;2022-07-22T02:20:45;99800.09;;;25.20
45701;BMP280;36277;32.852;-116.998;2022-07-22T02:23:12;99794.00;;;25.50
45701;BMP280;36277;32.852;-116.998;2022-07-22T02:25:40;99806.34;;;25.73
45701;BMP280;36277;32.852;-116.998;2022-07-22T02:28:06;99799.75;;;25.68
45701;BMP280;36277;32.852;-116.998;2022-07-22T02:30:33;99803.34;;;25.55
45701;BMP280;36277;32.852;-116.998;2022-07-22T02:32:59;99801.63;;;24.75
45701;BMP280;36277;32.852;-116.998;2022-07-22T02:35:26;99803.25;;;24.63
45701;BMP280;36277;32.852;-116.998;2022-07-22T02:37:52;99804.69;;;24.53
45701;BMP280;36277;32.852;-116.998;2022-07-22T02:40:18;99814.56;;;24.41
45701;BMP280;36277;32.852;-116.998;2022-07-22T02:42:45;99803.16;;;24.91
45701;BMP280;36277;32.852;-116.998;2022-07-22T02:45:11;99801.34;;;25.17
45701;BMP280;36277;32.852;-116.998;2022-07-22T02:47:52;99798.22;;;25.46
45701;BMP280;36277;32.852;-116.998;2022-07-22T02:50:20;99804.44;;;25.61
45701;BMP280;36277;32.852;-116.998;2022-07-22T02:52:47;99810.78;;;25.68
45701;BMP280;36277;32.852;-116.998;2022-07-22T02:55:14;99808.44;;;25.58
45701;BMP280;36277;32.852;-116.998;2022-07-22T02:57:40;99803.09;;;24.78
45701;BMP280;36277;32.852;-116.998;2022-07-22T03:00:09;99808.16;;;24.34
45701;BMP280;36277;32.852;-116.998;2022-07-22T03:02:36;99819.03;;;24.42
45701;BMP280;36277;32.852;-116.998;2022-07-22T03:05:04;99809.25;;;24.73
45701;BMP280;36277;32.852;-116.998;2022-07-22T03:07:31;99803.41;;;25.02
45701;BMP280;36277;32.852;-116.998;2022-07-22T03:09:57;99803.06;;;25.25
45701;BMP280;36277;32.852;-116.998;2022-07-22T03:12:24;99805.69;;;25.45
45701;BMP280;36277;32.852;-116.998;2022-07-22T03:14:50;99807.63;;;25.58
45701;BMP280;36277;32.852;-116.998;2022-07-22T03:17:16;99814.44;;;25.68
45701;BMP280;36277;32.852;-116.998;2022-07-22T03:19:43;99813.34;;;25.50
45701;BMP280;36277;32.852;-116.998;2022-07-22T03:22:09;99811.81;;;25.22
45701;BMP280;36277;32.852;-116.998;2022-07-22T03:24:36;99815.63;;;25.33
45701;BMP280;36277;32.852;-116.998;2022-07-22T03:27:02;99818.88;;;25.50
45701;BMP280;36277;32.852;-116.998;2022-07-22T03:29:28;99813.34;;;25.56
45701;BMP280;36277;32.852;-116.998;2022-07-22T03:31:54;99815.91;;;25.71
45701;BMP280;36277;32.852;-116.998;2022-07-22T03:34:20;99822.31;;;25.84
45701;BMP280;36277;32.852;-116.998;2022-07-22T03:36:47;99815.72;;;25.85
45701;BMP280;36277;32.852;-116.998;2022-07-22T03:39:13;99813.41;;;25.95
45701;BMP280;36277;32.852;-116.998;2022-07-22T03:41:40;99809.56;;;25.96
45701;BMP280;36277;32.852;-116.998;2022-07-22T03:44:07;99821.06;;;26.00
45701;BMP280;36277;32.852;-116.998;2022-07-22T03:46:33;99821.69;;;26.02
45701;BMP280;36277;32.852;-116.998;2022-07-22T03:48:59;99823.59;;;26.01
45701;BMP280;36277;32.852;-116.998;2022-07-22T03:51:26;99821.47;;;26.10
45701;BMP280;36277;32.852;-116.998;2022-07-22T03:53:53;99825.72;;;26.19
45701;BMP280;36277;32.852;-116.998;2022-07-22T03:56:20;99828.69;;;26.17
45701;BMP280;36277;32.852;-116.998;2022-07-22T03:58:47;99831.69;;;26.22
45701;BMP280;36277;32.852;-116.998;2022-07-22T04:01:14;99823.13;;;26.30
45701;BMP280;36277;32.852;-116.998;2022-07-22T04:03:40;99826.13;;;26.29
45701;BMP280;36277;32.852;-116.998;2022-07-22T04:06:06;99827.81;;;26.36
45701;BMP280;36277;32.852;-116.998;2022-07-22T04:08:33;99828.69;;;26.43
45701;BMP280;36277;32.852;-116.998;2022-07-22T04:11:00;99834.00;;;26.44
45701;BMP280;36277;32.852;-116.998;2022-07-22T04:13:27;99826.56;;;26.45
45701;BMP280;36277;32.852;-116.998;2022-07-22T04:15:55;99830.41;;;26.44
45701;BMP280;36277;32.852;-116.998;2022-07-22T04:18:21;99833.16;;;26.38
45701;BMP280;36277;32.852;-116.998;2022-07-22T04:20:48;99840.78;;;26.42
45701;BMP280;36277;32.852;-116.998;2022-07-22T04:23:14;99844.88;;;26.46
45701;BMP280;36277;32.852;-116.998;2022-07-22T04:25:40;99845.88;;;26.58
45701;BMP280;36277;32.852;-116.998;2022-07-22T04:28:06;99848.28;;;26.48
45701;BMP280;36277;32.852;-116.998;2022-07-22T04:30:33;99855.91;;;26.52
45701;BMP280;36277;32.852;-116.998;2022-07-22T04:32:59;99856.97;;;26.58
45701;BMP280;36277;32.852;-116.998;2022-07-22T04:35:26;99854.84;;;26.53
45701;BMP280;36277;32.852;-116.998;2022-07-22T04:37:54;99855.06;;;26.52
45701;BMP280;36277;32.852;-116.998;2022-07-22T04:40:20;99865.69;;;26.55
45701;BMP280;36277;32.852;-116.998;2022-07-22T04:42:47;99862.28;;;26.66
45701;BMP280;36277;32.852;-116.998;2022-07-22T04:45:14;99863.13;;;26.60
45701;BMP280;36277;32.852;-116.998;2022-07-22T04:47:41;99861.00;;;26.62
45701;BMP280;36277;32.852;-116.998;2022-07-22T04:50:09;99864.81;;;26.74
45701;BMP280;36277;32.852;-116.998;2022-07-22T04:52:36;99873.75;;;26.69
45701;BMP280;36277;32.852;-116.998;2022-07-22T04:55:03;99878.03;;;26.72
45701;BMP280;36277;32.852;-116.998;2022-07-22T04:57:30;99872.06;;;26.68
45701;BMP280;36277;32.852;-116.998;2022-07-22T04:59:57;99878.84;;;26.79
45701;BMP280;36277;32.852;-116.998;2022-07-22T05:02:24;99869.91;;;26.77
45701;BMP280;36277;32.852;-116.998;2022-07-22T05:04:51;99876.31;;;26.77
45701;BMP280;36277;32.852;-116.998;2022-07-22T05:07:17;99868.63;;;26.79
45701;BMP280;36277;32.852;-116.998;2022-07-22T05:09:43;99874.38;;;26.84
45701;BMP280;36277;32.852;-116.998;2022-07-22T05:12:10;99872.66;;;26.90
45701;BMP280;36277;32.852;-116.998;2022-07-22T05:14:38;99877.94;;;26.98
45701;BMP280;36277;32.852;-116.998;2022-07-22T05:17:11;99874.28;;;27.04
45701;BMP280;36277;32.852;-116.998;2022-07-22T05:19:38;99881.75;;;27.10
45701;BMP280;36277;32.852;-116.998;2022-07-22T05:22:07;99872.91;;;26.75
45701;BMP280;36277;32.852;-116.998;2022-07-22T05:24:34;99879.47;;;25.71
45701;BMP280;36277;32.852;-116.998;2022-07-22T05:27:01;99872.06;;;25.12
45701;BMP280;36277;32.852;-116.998;2022-07-22T05:29:28;99868.09;;;25.21
45701;BMP280;36277;32.852;-116.998;2022-07-22T05:31:54;99876.06;;;25.69
45701;BMP280;36277;32.852;-116.998;2022-07-22T05:34:21;99877.19;;;26.00
45701;BMP280;36277;32.852;-116.998;2022-07-22T05:36:48;99876.59;;;26.05
45701;BMP280;36277;32.852;-116.998;2022-07-22T05:39:15;99875.94;;;26.22
45701;BMP280;36277;32.852;-116.998;2022-07-22T05:41:41;99866.97;;;26.33
45701;BMP280;36277;32.852;-116.998;2022-07-22T05:44:08;99872.72;;;26.38
45701;BMP280;36277;32.852;-116.998;2022-07-22T05:46:35;99869.34;;;26.49
45701;BMP280;36277;32.852;-116.998;2022-07-22T05:49:01;99869.53;;;26.41
45701;BMP280;36277;32.852;-116.998;2022-07-22T05:51:28;99873.19;;;26.48
45701;BMP280;36277;32.852;-116.998;2022-07-22T05:53:55;99869.53;;;26.60
45701;BMP280;36277;32.852;-116.998;2022-07-22T05:56:22;99867.19;;;26.57
45701;BMP280;36277;32.852;-116.998;2022-07-22T05:58:48;99870.78;;;26.71
45701;BMP280;36277;32.852;-116.998;2022-07-22T06:01:15;99870.34;;;26.67
45701;BMP280;36277;32.852;-116.998;2022-07-22T06:03:42;99869.53;;;26.67
45701;BMP280;36277;32.852;-116.998;2022-07-22T06:06:09;99869.28;;;26.75
45701;BMP280;36277;32.852;-116.998;2022-07-22T06:08:38;99869.91;;;26.83
45701;BMP280;36277;32.852;-116.998;2022-07-22T06:11:04;99872.25;;;26.80
45701;BMP280;36277;32.852;-116.998;2022-07-22T06:13:32;99866.13;;;26.65
45701;BMP280;36277;32.852;-116.998;2022-07-22T06:16:02;99865.25;;;25.74
45701;BMP280;36277;32.852;-116.998;2022-07-22T06:18:31;99859.16;;;25.19
45701;BMP280;36277;32.852;-116.998;2022-07-22T06:20:58;99868.88;;;24.68
45701;BMP280;36277;32.852;-116.998;2022-07-22T06:23:24;99865.53;;;24.45
45701;BMP280;36277;32.852;-116.998;2022-07-22T06:25:51;99870.28;;;24.03
45701;BMP280;36277;32.852;-116.998;2022-07-22T06:28:18;99858.09;;;23.91
45701;BMP280;36277;32.852;-116.998;2022-07-22T06:30:44;99869.53;;;23.73
45701;BMP280;36277;32.852;-116.998;2022-07-22T06:33:10;99868.66;;;23.66
45701;BMP280;36277;32.852;-116.998;2022-07-22T06:35:40;99868.72;;;23.31
45701;BMP280;36277;32.852;-116.998;2022-07-22T06:38:07;99874.91;;;23.04
45701;BMP280;36277;32.852;-116.998;2022-07-22T06:40:34;99875.09;;;23.02
45701;BMP280;36277;32.852;-116.998;2022-07-22T06:43:01;99864.13;;;22.74
45701;BMP280;36277;32.852;-116.998;2022-07-22T06:45:28;99865.94;;;22.67
45701;BMP280;36277;32.852;-116.998;2022-07-22T06:47:55;99865.66;;;22.62
45701;BMP280;36277;32.852;-116.998;2022-07-22T06:50:22;99867.97;;;22.21
45701;BMP280;36277;32.852;-116.998;2022-07-22T06:52:48;99848.53;;;22.23
45701;BMP280;36277;32.852;-116.998;2022-07-22T06:55:16;99858.03;;;22.93
45701;BMP280;36277;32.852;-116.998;2022-07-22T06:57:42;99846.34;;;23.40
45701;BMP280;36277;32.852;-116.998;2022-07-22T07:00:10;99857.47;;;23.74
45701;BMP280;36277;32.852;-116.998;2022-07-22T07:02:37;99850.91;;;23.96
45701;BMP280;36277;32.852;-116.998;2022-07-22T07:05:04;99855.22;;;23.78
45701;BMP280;36277;32.852;-116.998;2022-07-22T07:07:30;99847.88;;;23.07
45701;BMP280;36277;32.852;-116.998;2022-07-22T07:09:56;99844.63;;;22.40
45701;BMP280;36277;32.852;-116.998;2022-07-22T07:12:23;99837.22;;;21.89
45701;BMP280;36277;32.852;-116.998;2022-07-22T07:14:49;99835.56;;;22.17
45701;BMP280;36277;32.852;-116.998;2022-07-22T07:17:16;99827.09;;;22.91
45701;BMP280;36277;32.852;-116.998;2022-07-22T07:19:42;99836.59;;;23.23
45701;BMP280;36277;32.852;-116.998;2022-07-22T07:22:08;99837.16;;;23.54
45701;BMP280;36277;32.852;-116.998;2022-07-22T07:24:35;99841.06;;;23.81
45701;BMP280;36277;32.852;-116.998;2022-07-22T07:27:01;99843.31;;;23.98
45701;BMP280;36277;32.852;-116.998;2022-07-22T07:29:28;99840.06;;;24.15
45701;BMP280;36277;32.852;-116.998;2022-07-22T07:31:55;99836.53;;;24.28
45701;BMP280;36277;32.852;-116.998;2022-07-22T07:34:22;99828.09;;;24.36
45701;BMP280;36277;32.852;-116.998;2022-07-22T07:36:48;99819.94;;;24.49
45701;BMP280;36277;32.852;-116.998;2022-07-22T07:39:15;99817.66;;;24.59
45701;BMP280;36277;32.852;-116.998;2022-07-22T07:41:42;99816.63;;;24.66
45701;BMP280;36277;32.852;-116.998;2022-07-22T07:44:08;99806.84;;;24.57
45701;BMP280;36277;32.852;-116.998;2022-07-22T07:46:34;99803.56;;;23.86
45701;BMP280;36277;32.852;-116.998;2022-07-22T07:49:01;99794.16;;;22.97
45701;BMP280;36277;32.852;-116.998;2022-07-22T07:51:28;99805.09;;;22.41
45701;BMP280;36277;32.852;-116.998;2022-07-22T07:53:55;99815.50;;;22.45
45701;BMP280;36277;32.852;-116.998;2022-07-22T07:56:21;99812.75;;;23.09
45701;BMP280;36277;32.852;-116.998;2022-07-22T07:58:47;99807.78;;;23.40
45701;BMP280;36277;32.852;-116.998;2022-07-22T08:01:13;99797.03;;;23.66
45701;BMP280;36277;32.852;-116.998;2022-07-22T08:03:40;99791.09;;;23.90
45701;BMP280;36277;32.852;-116.998;2022-07-22T08:06:07;99792.28;;;24.09
45701;BMP280;36277;32.852;-116.998;2022-07-22T08:08:33;99788.13;;;24.19
45701;BMP280;36277;32.852;-116.998;2022-07-22T08:11:00;99783.53;;;24.32
45701;BMP280;36277;32.852;-116.998;2022-07-22T08:13:26;99778.50;;;24.42
45701;BMP280;36277;32.852;-116.998;2022-07-22T08:15:52;99776.78;;;24.41
45701;BMP280;36277;32.852;-116.998;2022-07-22T08:18:19;99770.91;;;24.51
45701;BMP280;36277;32.852;-116.998;2022-07-22T08:20:45;99760.56;;;24.59
45701;BMP280;36277;32.852;-116.998;2022-07-22T08:23:12;99768.25;;;24.64
45701;BMP280;36277;32.852;-116.998;2022-07-22T08:25:38;99770.59;;;24.67
45701;BMP280;36277;32.852;-116.998;2022-07-22T08:28:05;99760.84;;;24.71
45701;BMP280;36277;32.852;-116.998;2022-07-22T08:30:32;99761.47;;;24.73
45701;BMP280;36277;32.852;-116.998;2022-07-22T08:32:58;99759.59;;;24.80
45701;BMP280;36277;32.852;-116.998;2022-07-22T08:35:25;99754.94;;;24.87
45701;BMP280;36277;32.852;-116.998;2022-07-22T08:37:52;99759.19;;;24.83
45701;BMP280;36277;32.852;-116.998;2022-07-22T08:40:19;99763.47;;;24.92
45701;BMP280;36277;32.852;-116.998;2022-07-22T08:42:46;99750.06;;;24.89
45701;BMP280;36277;32.852;-116.998;2022-07-22T08:45:13;99752.84;;;24.95
45701;BMP280;36277;32.852;-116.998;2022-07-22T08:47:40;99758.16;;;24.97
45701;BMP280;36277;32.852;-116.998;2022-07-22T08:50:09;99754.31;;;24.98
45701;BMP280;36277;32.852;-116.998;2022-07-22T08:52:36;99754.03;;;24.33
45701;BMP280;36277;32.852;-116.998;2022-07-22T08:55:07;99766.28;;;23.42
45701;BMP280;36277;32.852;-116.998;2022-07-22T08:57:34;99763.75;;;22.70
45701;BMP280;36277;32.852;-116.998;2022-07-22T09:00:10;99753.63;;;23.26
45701;BMP280;36277;32.852;-116.998;2022-07-22T09:02:38;99743.34;;;23.62
45701;BMP280;36277;32.852;-116.998;2022-07-22T09:05:07;99749.09;;;23.88
45701;BMP280;36277;32.852;-116.998;2022-07-22T09:07:36;99752.63;;;24.10
45701;BMP280;36277;32.852;-116.998;2022-07-22T09:10:12;99756.28;;;24.16
45701;BMP280;36277;32.852;-116.998;2022-07-22T09:12:51;99752.97;;;24.27
45701;BMP280;36277;32.852;-116.998;2022-07-22T09:15:34;99746.25;;;24.43
45701;BMP280;36277;32.852;-116.998;2022-07-22T09:18:04;99749.06;;;24.49
45701;BMP280;36277;32.852;-116.998;2022-07-22T09:20:32;99738.47;;;24.53
45701;BMP280;36277;32.852;-116.998;2022-07-22T09:22:58;99748.91;;;24.57
45701;BMP280;36277;32.852;-116.998;2022-07-22T09:25:31;99742.59;;;24.70
45701;BMP280;36277;32.852;-116.998;2022-07-22T09:30:37;99739.38;;;24.73
45701;BMP280;36277;32.852;-116.998;2022-07-22T09:33:05;99746.00;;;24.78
45701;BMP280;36277;32.852;-116.998;2022-07-22T09:35:31;99745.59;;;24.81
45701;BMP280;36277;32.852;-116.998;2022-07-22T09:38:04;99743.91;;;24.87
45701;BMP280;36277;32.852;-116.998;2022-07-22T09:40:37;99743.25;;;24.91
45701;BMP280;36277;32.852;-116.998;2022-07-22T09:43:15;99730.75;;;24.89
45701;BMP280;36277;32.852;-116.998;2022-07-22T09:45:54;99731.81;;;24.94
45701;BMP280;36277;32.852;-116.998;2022-07-22T09:48:23;99734.56;;;24.94
45701;BMP280;36277;32.852;-116.998;2022-07-22T09:50:51;99733.94;;;24.99
45701;BMP280;36277;32.852;-116.998;2022-07-22T09:53:21;99721.84;;;25.00
45701;BMP280;36277;32.852;-116.998;2022-07-22T09:55:48;99720.13;;;24.99
45701;BMP280;36277;32.852;-116.998;2022-07-22T09:58:15;99723.13;;;25.04
45701;BMP280;36277;32.852;-116.998;2022-07-22T10:00:42;99725.69;;;25.05
45701;BMP280;36277;32.852;-116.998;2022-07-22T10:03:17;99727.41;;;25.06
45701;BMP280;36277;32.852;-116.998;2022-07-22T10:05:44;99735.44;;;25.08
45701;BMP280;36277;32.852;-116.998;2022-07-22T10:08:12;99736.31;;;25.08
45701;BMP280;36277;32.852;-116.998;2022-07-22T10:10:39;99724.41;;;25.08
45701;BMP280;36277;32.852;-116.998;2022-07-22T10:13:06;99739.28;;;25.13
45701;BMP280;36277;32.852;-116.998;2022-07-22T10:15:34;99732.91;;;25.13
45701;BMP280;36277;32.852;-116.998;2022-07-22T10:18:04;99736.34;;;25.15
45701;BMP280;36277;32.852;-116.998;2022-07-22T10:20:33;99739.94;;;25.15
45701;BMP280;36277;32.852;-116.998;2022-07-22T10:23:01;99746.53;;;25.14
45701;BMP280;36277;32.852;-116.998;2022-07-22T10:25:31;99742.53;;;25.17
45701;BMP280;36277;32.852;-116.998;2022-07-22T10:28:03;99746.03;;;24.44
45701;BMP280;36277;32.852;-116.998;2022-07-22T10:30:35;99748.00;;;23.34
45701;BMP280;36277;32.852;-116.998;2022-07-22T10:33:15;99744.78;;;22.75
45701;BMP280;36277;32.852;-116.998;2022-07-22T10:38:10;99749.22;;;23.32
45701;BMP280;36277;32.852;-116.998;2022-07-22T10:43:25;99743.13;;;23.85
45701;BMP280;36277;32.852;-116.998;2022-07-22T10:46:01;99740.75;;;24.09
45701;BMP280;36277;32.852;-116.998;2022-07-22T10:53:41;99731.31;;;24.31
45701;BMP280;36277;32.852;-116.998;2022-07-22T10:56:24;99735.88;;;24.45
45701;BMP280;36277;32.852;-116.998;2022-07-22T10:58:57;99738.22;;;24.48
45701;BMP280;36277;32.852;-116.998;2022-07-22T11:01:26;99739.31;;;24.53
45701;BMP280;36277;32.852;-116.998;2022-07-22T11:03:55;99735.47;;;24.48
45701;BMP280;36277;32.852;-116.998;2022-07-22T11:06:30;99728.88;;;24.49
45701;BMP280;36277;32.852;-116.998;2022-07-22T11:09:00;99738.06;;;24.62
45701;BMP280;36277;32.852;-116.998;2022-07-22T11:14:33;99732.78;;;24.61
45701;BMP280;36277;32.852;-116.998;2022-07-22T11:17:11;99721.75;;;24.74
45701;BMP280;36277;32.852;-116.998;2022-07-22T11:19:40;99720.28;;;24.71
45701;BMP280;36277;32.852;-116.998;2022-07-22T11:22:11;99726.88;;;24.77
45701;BMP280;36277;32.852;-116.998;2022-07-22T11:24:40;99721.34;;;24.77
45701;BMP280;36277;32.852;-116.998;2022-07-22T11:27:13;99721.81;;;24.80
45701;BMP280;36277;32.852;-116.998;2022-07-22T11:29:40;99721.81;;;24.80
45701;BMP280;36277;32.852;-116.998;2022-07-22T11:32:13;99731.78;;;24.81
45701;BMP280;36277;32.852;-116.998;2022-07-22T11:34:43;99720.53;;;24.83
45701;BMP280;36277;32.852;-116.998;2022-07-22T11:37:17;99733.06;;;24.85
45701;BMP280;36277;32.852;-116.998;2022-07-22T11:39:44;99733.06;;;24.85
45701;BMP280;36277;32.852;-116.998;2022-07-22T11:42:11;99740.72;;;24.90
45701;BMP280;36277;32.852;-116.998;2022-07-22T11:44:38;99738.38;;;24.93
45701;BMP280;36277;32.852;-116.998;2022-07-22T11:47:07;99739.25;;;24.94
45701;BMP280;36277;32.852;-116.998;2022-07-22T11:49:35;99736.28;;;24.95
45701;BMP280;36277;32.852;-116.998;2022-07-22T11:52:07;99742.44;;;24.97
45701;BMP280;36277;32.852;-116.998;2022-07-22T11:54:35;99737.97;;;24.96
45701;BMP280;36277;32.852;-116.998;2022-07-22T11:57:02;99738.41;;;25.00
45701;BMP280;36277;32.852;-116.998;2022-07-22T11:59:28;99735.00;;;24.98
45701;BMP280;36277;32.852;-116.998;2022-07-22T12:01:55;99738.84;;;24.97
45701;BMP280;36277;32.852;-116.998;2022-07-22T12:04:24;99734.81;;;24.99
45701;BMP280;36277;32.852;-116.998;2022-07-22T12:06:52;99742.22;;;24.99
45701;BMP280;36277;32.852;-116.998;2022-07-22T12:09:24;99737.16;;;25.02
45701;BMP280;36277;32.852;-116.998;2022-07-22T12:11:54;99730.75;;;25.02
45701;BMP280;36277;32.852;-116.998;2022-07-22T12:14:26;99738.22;;;25.01
45701;BMP280;36277;32.852;-116.998;2022-07-22T12:17:08;99737.56;;;24.99
45701;BMP280;36277;32.852;-116.998;2022-07-22T12:19:39;99745.19;;;24.97
45701;BMP280;36277;32.852;-116.998;2022-07-22T12:22:08;99744.97;;;24.99
45701;BMP280;36277;32.852;-116.998;2022-07-22T12:24:39;99746.50;;;25.01
45701;BMP280;36277;32.852;-116.998;2022-07-22T12:27:07;99750.72;;;24.97
45701;BMP280;36277;32.852;-116.998;2022-07-22T12:32:07;99763.91;;;25.02
45701;BMP280;36277;32.852;-116.998;2022-07-22T12:34:43;99766.06;;;25.06
45701;BMP280;36277;32.852;-116.998;2022-07-22T12:37:26;99771.56;;;25.06
45701;BMP280;36277;32.852;-116.998;2022-07-22T12:42:28;99762.19;;;25.01
45701;BMP280;36277;32.852;-116.998;2022-07-22T12:45:10;99774.34;;;25.06
45701;BMP280;36277;32.852;-116.998;2022-07-22T12:47:54;99772.81;;;25.04
45701;BMP280;36277;32.852;-116.998;2022-07-22T12:50:36;99781.75;;;25.06
45701;BMP280;36277;32.852;-116.998;2022-07-22T12:53:13;99774.97;;;25.08
45701;BMP280;36277;32.852;-116.998;2022-07-22T12:55:54;99784.09;;;25.09
45701;BMP280;36277;32.852;-116.998;2022-07-22T12:58:25;99783.47;;;25.07
45701;BMP280;36277;32.852;-116.998;2022-07-22T13:00:55;99794.09;;;25.10
45701;BMP280;36277;32.852;-116.998;2022-07-22T13:03:22;99801.53;;;25.09
45701;BMP280;36277;32.852;-116.998;2022-07-22T13:05:54;99800.88;;;25.07
45701;BMP280;36277;32.852;-116.998;2022-07-22T13:08:21;99820.00;;;25.09
45701;BMP280;36277;32.852;-116.998;2022-07-22T13:10:50;99818.28;;;25.08
45701;BMP280;36277;32.852;-116.998;2022-07-22T13:13:17;99808.53;;;25.05
45701;BMP280;36277;32.852;-116.998;2022-07-22T13:15:44;99810.22;;;25.06
45701;BMP280;36277;32.852;-116.998;2022-07-22T13:18:11;99807.47;;;25.06
45701;BMP280;36277;32.852;-116.998;2022-07-22T13:20:38;99822.13;;;25.07
45701;BMP280;36277;32.852;-116.998;2022-07-22T13:23:04;99818.06;;;25.03
45701;BMP280;36277;32.852;-116.998;2022-07-22T13:25:32;99825.09;;;25.05
45701;BMP280;36277;32.852;-116.998;2022-07-22T13:27:59;99818.53;;;25.06
45701;BMP280;36277;32.852;-116.998;2022-07-22T13:30:25;99819.16;;;25.08
45701;BMP280;36277;32.852;-116.998;2022-07-22T13:32:53;99828.50;;;25.07
45701;BMP280;36277;32.852;-116.998;2022-07-22T13:35:19;99827.22;;;25.10
45701;BMP280;36277;32.852;-116.998;2022-07-22T13:37:46;99832.53;;;25.11
45701;BMP280;36277;32.852;-116.998;2022-07-22T13:40:14;99830.63;;;25.12
45701;BMP280;36277;32.852;-116.998;2022-07-22T13:42:41;99837.88;;;25.13
45701;BMP280;36277;32.852;-116.998;2022-07-22T13:45:08;99843.38;;;25.13
45701;BMP280;36277;32.852;-116.998;2022-07-22T13:47:42;99838.69;;;25.13
45701;BMP280;36277;32.852;-116.998;2022-07-22T13:50:09;99839.16;;;25.10
45701;BMP280;36277;32.852;-116.998;2022-07-22T13:52:37;99835.09;;;25.13
45701;BMP280;36277;32.852;-116.998;2022-07-22T13:55:04;99844.66;;;25.10
45701;BMP280;36277;32.852;-116.998;2022-07-22T13:57:31;99847.22;;;25.12